Open Full Screen Window  High Contrast Mode
Wind Gusting 00 knots
09
November 23, 2014 5:07 PM EST
Weather Information
Wind Direction
  110 °
Wind Speed
  09 kt (10 mph)
Wind Gust
  00 kt (0 mph)
Altimeter
29.77 in
Visibility
10 SM
Temperature
13° C
55° F
Dewpoint
04° C
39° F
Humidity
55%
1hr Rain Fall
00.00 in.
24hr Rain Fall
00.06 in.
Sky Condition
Clear
VFR

METAR KPOV 232207Z AUTO 11009KT 10SM CLR 13/04 A2977 RMK AO2 T01260044

*Background is not an actual portrayal of the airport.